• Join FlightAware (Why Join?)
  • Login
  • US Flag 
04:15AM EDT


 

Airport Tracker/Info


-or-


 

Live Flight TrackerFlight Track Log ✈ DAL6201 ✈ 03-Apr-2014 ✈ KMKE - KLGA

Flight Track Log - Related Links

Times and Time Zones

All times are in EDT time to prevent confusion due to time zone crossing. See the DAL6201 flight status page for this flight to view local times or setup timezone preferences in your user account.

Time Position Orientation Groundspeed Altitude Reporting Facility
EDT Latitude Longitude Course Direction KTS MPH feet Rate Location/Type
07:37AM 42.9500 -87.9000 168° South 135 155 1,300  Level KMKE
07:38AM 42.9028 -87.8858 168° South 217 250 5,200 2,220 Climbing Chicago Center
07:39AM 42.8669 -87.8281 130° Southeast 235 270 7,000 1,980 Climbing Chicago Center
07:40AM 42.8792 -87.7189 81° East 289 333 9,300 2,460 Climbing Chicago Center
07:41AM 42.8831 -87.6019 87° East 306 352 12,100 2,040 Climbing Chicago Center
07:42AM 42.8897 -87.4742 86° East 334 384 13,500 1,380 Climbing Chicago Center
07:43AM 42.8944 -87.3403 87° East 375 432 15,000 1,980 Climbing Chicago Center
07:44AM 42.8972 -87.1536 89° East 410 472 17,600 2,280 Climbing Chicago Center
07:45AM 42.8994 -86.9972 89° East 414 476 19,700 1,800 Climbing Chicago Center
07:46AM 42.9036 -86.8381 88° East 418 481 21,400 1,260 Climbing Chicago Center
07:47AM 42.9064 -86.6678 89° East 449 517 22,300 960 Climbing Chicago Center
07:48AM 42.9247 -86.4894 82° East 474 545 23,400 1,080 Climbing Chicago Center
07:49AM 42.9442 -86.3050 82° East 488 562 24,500 1,260 Climbing Chicago Center
07:51AM 42.9619 -86.1214 82° East 495 570 26,000 1,560 Climbing Chicago Center
07:52AM 42.9833 -85.9061 82° East 499 574 27,700 1,380 Climbing Chicago Center
07:53AM 43.0019 -85.7247 82° East 499 574 28,900 1,020 Climbing Chicago Center
07:54AM 43.0208 -85.5383 82° East 498 573 29,900 960 Climbing Chicago Center
07:55AM 43.0381 -85.3481 83° East 503 579 30,900 960 Climbing Chicago Center
07:56AM 43.0564 -85.1572 82° East 504 580 31,900 960 Climbing Chicago Center
07:57AM 43.0736 -84.9653 83° East 507 583 32,900 960 Climbing Chicago Center
07:57AM 43.0872 -84.8100 83° East 512 589 33,700 960 Climbing Cleveland Center
07:58AM 43.1042 -84.6161 83° East 514 592 34,700 600 Climbing Cleveland Center
07:59AM 43.1086 -84.4208 88° East 514 592 35,000 480 Climbing Cleveland Center
08:00AM 43.1056 -84.1806 91° East 524 603 35,800 660 Climbing Cleveland Center
08:02AM 43.1031 -83.9769 91° East 530 610 36,400 540 Climbing Cleveland Center
08:03AM 43.1008 -83.7706 91° East 534 615 37,000 240 Climbing Cleveland Center
08:04AM 43.0978 -83.5619 91° East 546 628 37,000  Level Cleveland Center
08:05AM 43.0953 -83.3517 91° East 547 629 37,000  Level Cleveland Center
08:06AM 43.0922 -83.1439 91° East 547 629 37,000  Level Cleveland Center
08:07AM 43.0889 -82.9392 91° East 542 624 37,000  Level Cleveland Center
08:08AM 43.0828 -82.6933 92° East 538 619 37,000  Level Cleveland Center
08:08AM 43.0833 -82.5833 90° East 540 621 37,000  Level Toronto Center
08:09AM 43.0667 -82.4000 97° East 530 610 37,000  Level Toronto Center
08:10AM 43.0500 -82.1667 96° East 530 610 37,000  Level Toronto Center
08:11AM 43.0500 -81.9833 90° East 530 610 37,000  Level Toronto Center
08:12AM 43.0500 -81.7833 90° East 530 610 37,000  Level Toronto Center
08:13AM 43.0500 -81.5667 90° East 530 610 37,000  Level Toronto Center
08:14AM 43.0333 -81.3833 97° East 530 610 37,000  Level Toronto Center
08:15AM 43.0333 -81.1667 90° East 530 610 37,000  Level Toronto Center
08:16AM 43.0167 -80.9833 97° East 530 610 37,000  Level Toronto Center
08:17AM 43.0167 -80.7667 90° East 530 610 37,000  Level Toronto Center
08:18AM 43.0167 -80.5667 90° East 530 610 37,000  Level Toronto Center
08:19AM 43.0000 -80.3667 96° East 540 621 37,000  Level Toronto Center
08:20AM 43.0000 -80.1500 90° East 540 621 37,000  Level Toronto Center
08:21AM 42.9833 -79.9500 96° East 540 621 37,000  Level Toronto Center
08:22AM 42.9833 -79.7500 90° East 540 621 37,000  Level Toronto Center
08:23AM 42.9667 -79.5500 96° East 540 621 37,000  Level Toronto Center
08:24AM 42.9500 -79.3333 96° East 540 621 37,000  Level Toronto Center
08:25AM 42.9500 -79.1500 90° East 530 610 37,000  Level Toronto Center
08:26AM 42.9333 -78.9500 96° East 540 621 37,000  Level Toronto Center
08:27AM 42.9333 -78.7500 90° East 550 633 37,000  Level Toronto Center
08:28AM 42.9167 -78.5167 95° East 550 633 37,000  Level Toronto Center
08:29AM 42.8667 -78.3167 109° East 550 633 37,000  Level Toronto Center
08:30AM 42.8500 -78.1167 96° East 540 621 37,000  Level Toronto Center
08:31AM 42.8333 -77.9333 97° East 540 621 37,000  Level Toronto Center
08:32AM 42.8000 -77.7000 101° East 540 621 37,000  Level Toronto Center
08:33AM 42.8042 -77.6578 82° East 525 604 37,000  Level Cleveland Center
08:34AM 42.7775 -77.4536 100° East 534 615 37,000  Level Cleveland Center
08:35AM 42.7506 -77.2500 100° East 537 618 37,000  Level Cleveland Center
08:36AM 42.7231 -77.0483 100° East 538 619 37,000  Level Cleveland Center
08:37AM 42.6956 -76.8450 100° East 542 624 37,000  Level Cleveland Center
08:38AM 42.6656 -76.6281 101° East 547 629 37,000  Level Cleveland Center
08:39AM 42.6333 -76.3986 101° East 547 629 37,000 -300 Level Cleveland Center
08:40AM 42.6031 -76.1825 101° East 549 632 36,400 -780 Descending Cleveland Center
08:41AM 42.5736 -75.9781 101° East 551 634 35,400 -1,020 Descending Cleveland Center
08:42AM 42.5453 -75.7750 101° East 552 635 34,400 -1,080 Descending Cleveland Center
08:43AM 42.5064 -75.5797 105° East 544 626 33,300 -1,680 Descending Cleveland Center
08:44AM 42.4494 -75.3906 112° Southeast 544 626 31,000 -2,280 Descending Cleveland Center
08:45AM 42.3944 -75.2086 112° Southeast 533 613 28,700 -2,520 Descending Cleveland Center
08:46AM 42.3317 -74.9969 112° Southeast 510 587 25,900 -2,340 Descending Cleveland Center
08:47AM 42.2792 -74.8203 112° Southeast 508 585 23,600 -2,160 Descending Boston Center
08:48AM 42.2253 -74.6481 113° Southeast 503 579 21,300 -2,400 Descending Boston Center
08:49AM 42.1647 -74.4492 112° Southeast 480 552 18,900 -1,680 Descending Boston Center
08:50AM 42.1056 -74.3189 121° Southeast 426 490 18,000 -480 Descending Boston Center
08:51AM 42.0042 -74.2481 153° Southeast 414 476 18,000  Level Boston Center
08:52AM 41.8928 -74.1719 153° Southeast 418 481 18,000 -300 Level Boston Center
08:53AM 41.7889 -74.1003 153° Southeast 420 483 17,500 -1,140 Descending Boston Center
08:54AM 41.6881 -74.0311 153° Southeast 409 471 15,800 -1,980 Descending Boston Center
08:55AM 41.5922 -73.9667 153° Southeast 385 443 13,500 -2,220 Descending Boston Center
08:56AM 41.5011 -73.9056 153° Southeast 364 419 11,300 -1,740 Descending Boston Center
08:57AM 41.4181 -73.8503 153° Southeast 331 381 10,000 -1,380 Descending Boston Center
08:59AM 41.3333 -73.7833 149° Southeast 312 359 8,500 -1,380 Descending New York TRACON
09:00AM 41.2667 -73.7167 143° Southeast 299 344 7,200 -1,320 Descending New York TRACON
09:01AM 41.1833 -73.6833 163° South 275 316 5,900 -1,320 Descending New York TRACON
09:02AM 41.1167 -73.6500 159° South 271 312 4,600 -960 Descending New York TRACON
09:03AM 41.0500 -73.6333 169° South 271 312 4,000 -300 Descending New York TRACON
09:04AM 40.9667 -73.6333 180° South 266 306 4,000  Level New York TRACON
09:05AM 40.9000 -73.6667 201° Southwest 263 303 4,000  Level New York TRACON
09:05AM 40.8500 -73.6833 194° South 229 264 4,000  Level New York TRACON
09:07AM 40.7833 -73.7167 201° Southwest 214 246 4,000  Level New York TRACON
09:08AM 40.7833 -73.8000 270° West 206 237 4,000  Level New York TRACON
09:08AM 40.7833 -73.8667 270° West 208 239 4,000 -240 Level New York TRACON
09:10AM 40.7667 -73.9500 255° West 194 223 3,600 -540 Descending New York TRACON
09:10AM 40.7333 -73.9667 201° Southwest 203 234 3,000 -720 Descending New York TRACON
09:12AM 40.7167 -73.9000 108° East 166 191 2,200 -900 Descending New York TRACON
09:13AM 40.7333 -73.8500 66° East 129 148 1,200 -840 Descending New York TRACON
09:14AM 40.7667 -73.8333 21° North 141 162 600 -600 Descending New York TRACON